KSUX/SUX METAR and TAF weather

Enter ICAO airport designator
Station Type Date Time Source
KSUX METAR 2021/03/08 11:52 UTC NOAA

KSUX 081152Z AUTO 00000KT 9SM CLR M02/M03 A3019 RMK AO2 SLP227 T10171028 10050 21017 53013


Station Type Date Time Source
KSUX Decoded METAR 2021/03/08 11:52 UTC NOAA

SIOUX GATEWAY AIRPORT, IA, United States (KSUX) 42-23N 96-23W 338M
Mar 08, 2021 - 06:52 AM EST / 2021.03.08 1152 UTC
Wind: Calm:0
Visibility: 9 mile(s):0
Sky conditions: clear
Temperature: 28.9 F (-1.7 C)
Dew Point: 27.0 F (-2.8 C)
Relative Humidity: 92%
Pressure (altimeter): 30.19 in. Hg (1022 hPa)
Pressure tendency: 0.04 inches (1.3 hPa) higher than three hours ago
ob: KSUX 081152Z AUTO 00000KT 9SM CLR M02/M03 A3019 RMK AO2 SLP227 T10171028 10050 21017 53013
cycle: 12

Station Type Date Time Source
KSUX TAF 2021/03/08 12:36 UTC NOAA

TAF KSUX 081133Z 0812/0912 08004KT P6SM FEW250
FM081700 12009KT P6SM FEW250
FM082000 14014G22KT P6SM SCT250
FM090000 14013G18KT P6SM BKN250
FM090300 15012G17KT P6SM BKN250 WS020/19040KT
FM091000 15012G17KT P6SM FEW018 BKN250 WS020/20040KT

Example: see airport list